Aérodrome :
LOGIN :

S'inscrire | Disclaimer

   EN    FR    IT 

 










Légende :    VFR   VFR Marginal   IFR   IFR Intensif   IFR Très Intensif
Visi : 
Plafond : 
>= 8 km
>= 3000ft
5 à 8 km
1000 à 3000 ft
1500m à 5 km
500 à 1000 ft
800 à 1500m
200 à 500 ft
< 800m
< 200 ft
Symboles :   Orages  Brouillard  Fortes neiges  Fortes précipitations  Vent > 20 kt
SIGMETs :   Divers  Orages  Givrage  Turbulence  Onde Orograph.  Cendres Volcan.







- Altitude de l'aérodrome : 0 ft


ENOA - Oseberg A Platform

DERNIER METAR :
  • 221250Z 18045KT 5000 OVC012 08/07 Q1009 W///S6

METARs EXPIRÉS :
  • 221220Z 18045KT 5000 OVC012 08/07 Q1010 W///S6
  • 221150Z 18046KT 6000 OVC012 08/07 Q1011 W///S6
  • 221120Z 18048KT 6000 OVC010 08/07 Q1010 W///S6
  • 221050Z 19045KT 5000 OVC008 08/07 Q1011 W///S6
  • 221020Z 18046KT 4800 BR OVC008 08/07 Q1012 W///S6

TAF ENOA
Valide du 22 à 12h jusqu'au 23 à 12h UTC


2212/2312 18048KT 6000 -RA OVC010
TEMPO 2212/2216 2000 RADZ BR BKN004
BECMG 2215/2217 23035KT SCT020
BECMG 2219/2221 25045G55KT
TEMPO 2221/2312 SHRAGS BKN012CB
PROB30
TEMPO 2308/2312 TS
Pas de NOTAMs connus pour ce terrain.
2 SIGMETs publiés pour la FIR Norway (ENOR) :
 
Onde orographique forte
ENSV SIGMET B01 VALID 220915/221315 ENVV
ENOR NORWAY FIR SEV MTW FCST WI N6025 E00730 - N5930 E00530 - N6200 E00500 - N6200 E00730 - N6025 E00730 SFC/FL180 STNR INTSF=
Onde orographique forte
ENBD SIGMET C01 VALID 220920/221320 ENVV
ENOR NORWAY FIR SEV MTW FCST WI N6200 E00500 - N6240 E00635 - N6255 E01005 - N6200 E00845 - N6200 E00500 SFC/FL180 STNR INTSF=



MET'MAP, la Météo Aéronautique d'un coup d'oeil ! - Copyright ORBIFLY Décembre 2007 - Disclaimer

ORBIFLY MET'MAP TEAM :

Programmation & Développement : Alexandra Zaïnal
Conception & Développement : Baudouin d'Aumeries
Co-Programmation & Développement : Marc-Olivier Méhu
Soutien technique & logistique : Manuel Goepfert

Contact : metmap@orbifly.com




SOURCES & CREDITS :

   NOAA